Time;durP1;ratioP1;P1;durP2;ratioP2;P2;SDS_P1;SDS_P2;PMS_P1;PMS_P2;Temp;Humidity;BMP_temperature;BMP_pressure;BME280_temperature;BME280_humidity;BME280_pressure;Samples;Min_cycle;Max_cycle;Signal;HPM_P1;HPM_P2
2021/04/04 00:01:36;;;;;;;17.87;4.43;;;6.10;78.60;;;;;;5093402;28;20134;-68
2021/04/04 00:04:02;;;;;;;14.80;4.30;;;6.10;78.60;;;;;;5092975;28;20051;-68
2021/04/04 00:06:28;;;;;;;12.03;3.40;;;6.10;78.60;;;;;;5092970;28;20334;-68
2021/04/04 00:08:54;;;;;;;15.43;3.63;;;6.10;78.60;;;;;;5093830;28;20375;-68
2021/04/04 00:11:20;;;;;;;22.00;3.73;;;6.10;78.90;;;;;;5092711;28;20047;-68
2021/04/04 00:13:45;;;;;;;17.13;3.67;;;6.10;78.70;;;;;;5093439;28;20048;-68
2021/04/04 00:16:11;;;;;;;10.87;3.03;;;6.20;78.60;;;;;;5093327;28;20051;-68
2021/04/04 00:18:37;;;;;;;12.80;3.77;;;6.10;78.70;;;;;;5092452;28;20451;-68
2021/04/04 00:21:04;;;;;;;13.83;3.20;;;6.10;78.90;;;;;;5093280;28;20074;-68
2021/04/04 00:23:30;;;;;;;16.93;3.70;;;6.10;78.80;;;;;;5091459;28;20301;-68
2021/04/04 00:25:55;;;;;;;15.10;3.83;;;6.10;78.70;;;;;;5093326;28;20301;-68
2021/04/04 00:28:21;;;;;;;11.70;3.50;;;6.10;78.90;;;;;;5093004;28;20339;-68
2021/04/04 00:30:47;;;;;;;13.77;3.37;;;6.20;78.90;;;;;;5092291;28;20044;-68
2021/04/04 00:33:12;;;;;;;14.37;3.27;;;6.20;79.00;;;;;;5092781;28;20130;-68
2021/04/04 00:35:38;;;;;;;18.47;4.37;;;6.20;79.00;;;;;;5092783;28;20067;-68
2021/04/04 00:38:04;;;;;;;12.73;3.10;;;6.30;79.10;;;;;;5092345;28;20059;-68
2021/04/04 00:40:34;;;;;;;15.20;3.37;;;6.20;79.30;;;;;;5092561;28;20093;-68
2021/04/04 00:42:59;;;;;;;12.40;3.33;;;6.20;79.50;;;;;;5093170;28;20306;-68
2021/04/04 00:45:28;;;;;;;10.63;3.43;;;6.20;79.50;;;;;;5092032;28;20756;-68
2021/04/04 00:47:54;;;;;;;12.50;3.30;;;6.20;79.50;;;;;;5092974;28;20048;-68
2021/04/04 00:50:23;;;;;;;16.80;3.53;;;6.30;79.80;;;;;;5090254;28;20309;-68
2021/04/04 00:52:50;;;;;;;16.97;3.40;;;6.20;79.60;;;;;;5091984;28;20427;-68
2021/04/04 00:55:16;;;;;;;13.17;3.17;;;6.20;79.90;;;;;;5092409;28;20782;-68
2021/04/04 00:57:43;;;;;;;16.43;3.13;;;6.20;80.00;;;;;;5092567;28;20302;-68
2021/04/04 01:00:12;;;;;;;11.80;2.90;;;6.20;80.30;;;;;;5091921;28;20309;-68
2021/04/04 01:02:39;;;;;;;11.83;2.60;;;6.20;80.30;;;;;;5092166;28;20811;-68
2021/04/04 01:05:32;;;;;;;13.30;3.13;;;6.30;80.40;;;;;;5077379;28;20314;-68
2021/04/04 01:07:58;;;;;;;12.27;2.63;;;6.30;80.40;;;;;;5091827;28;20377;-68
2021/04/04 01:10:27;;;;;;;12.40;3.13;;;6.30;80.40;;;;;;5092205;28;20707;-68
2021/04/04 01:13:11;;;;;;;18.20;3.30;;;6.30;80.30;;;;;;5091679;28;20044;-68
2021/04/04 01:15:44;;;;;;;7.80;2.30;;;6.40;80.10;;;;;;5092316;28;20286;-68
2021/04/04 01:18:20;;;;;;;14.70;2.60;;;6.40;80.20;;;;;;5092417;28;20302;-68
2021/04/04 01:20:52;;;;;;;14.37;3.07;;;6.40;80.00;;;;;;5091404;28;20617;-68
2021/04/04 01:23:38;;;;;;;14.17;2.93;;;6.50;80.00;;;;;;5092086;28;20294;-68
2021/04/04 01:26:15;;;;;;;12.13;3.23;;;6.60;79.80;;;;;;5092131;28;20779;-69
2021/04/04 01:28:43;;;;;;;13.57;3.07;;;6.60;79.80;;;;;;5090922;28;20790;-68
2021/04/04 01:31:11;;;;;;;11.43;2.27;;;6.60;79.60;;;;;;5092170;28;20306;-68
2021/04/04 01:33:38;;;;;;;11.17;2.33;;;6.60;79.30;;;;;;5091766;28;20298;-68
2021/04/04 01:36:09;;;;;;;13.03;2.50;;;6.60;79.10;;;;;;5091175;28;20298;-68
2021/04/04 01:38:41;;;;;;;12.65;2.45;;;6.60;79.30;;;;;;5091721;28;20298;-68
2021/04/04 01:41:15;;;;;;;14.68;2.63;;;6.60;79.20;;;;;;5091286;28;20113;-69
2021/04/04 01:43:43;;;;;;;8.47;2.47;;;6.60;79.10;;;;;;5091708;28;20170;-68
2021/04/04 01:46:10;;;;;;;14.20;2.60;;;6.70;79.10;;;;;;5091982;28;20307;-68
2021/04/04 01:48:36;;;;;;;14.23;3.03;;;6.70;79.10;;;;;;5090479;28;20300;-68
2021/04/04 01:51:03;;;;;;;13.27;2.70;;;6.70;79.10;;;;;;5092080;28;20294;-68
2021/04/04 01:53:30;;;;;;;14.23;2.60;;;6.70;79.10;;;;;;5091380;28;20298;-68
2021/04/04 01:55:57;;;;;;;11.50;2.87;;;6.70;79.00;;;;;;5091141;28;20333;-68
2021/04/04 01:58:24;;;;;;;12.13;2.30;;;6.70;79.00;;;;;;5091425;28;20325;-68
2021/04/04 02:00:50;;;;;;;7.70;2.07;;;6.70;79.00;;;;;;5091190;28;20595;-68
2021/04/04 02:03:16;;;;;;;12.57;2.23;;;6.70;78.70;;;;;;5090582;28;20303;-68
2021/04/04 02:05:43;;;;;;;14.23;2.53;;;6.70;78.60;;;;;;5091524;28;20132;-68
2021/04/04 02:08:11;;;;;;;8.87;2.23;;;6.70;78.50;;;;;;5091818;28;20650;-68
2021/04/04 02:10:38;;;;;;;9.53;1.90;;;6.80;78.30;;;;;;5090626;28;20298;-68
2021/04/04 02:13:06;;;;;;;11.90;2.33;;;6.80;78.30;;;;;;5091500;28;20793;-68
2021/04/04 02:15:32;;;;;;;10.63;2.70;;;6.70;78.20;;;;;;5090936;28;20363;-68
2021/04/04 02:18:00;;;;;;;18.33;2.00;;;6.70;78.20;;;;;;5090713;28;20294;-68
2021/04/04 02:20:30;;;;;;;5.30;1.87;;;6.70;78.10;;;;;;5091320;28;20294;-68
2021/04/04 02:22:58;;;;;;;10.03;2.43;;;6.70;78.20;;;;;;5091663;28;20317;-68
2021/04/04 02:25:26;;;;;;;15.17;2.97;;;6.70;78.20;;;;;;5091158;28;20294;-68
2021/04/04 02:27:51;;;;;;;9.77;2.17;;;6.60;78.00;;;;;;5091437;28;20308;-68
2021/04/04 02:30:18;;;;;;;15.67;2.30;;;6.60;77.80;;;;;;5090304;28;20729;-68
2021/04/04 02:33:25;;;;;;;15.43;3.13;;;6.60;78.00;;;;;;5091045;28;20477;-68
2021/04/04 02:36:03;;;;;;;8.47;1.93;;;6.50;77.60;;;;;;5090293;28;20334;-68
2021/04/04 02:38:33;;;;;;;8.23;2.00;;;6.40;78.50;;;;;;5090064;28;20294;-68
2021/04/04 02:41:01;;;;;;;9.23;2.30;;;6.50;77.70;;;;;;5091487;28;20375;-68
2021/04/04 02:43:29;;;;;;;10.50;2.20;;;6.50;77.60;;;;;;5090974;28;20365;-68
2021/04/04 02:45:57;;;;;;;12.03;2.53;;;6.50;77.60;;;;;;5090826;28;20290;-68
2021/04/04 02:48:35;;;;;;;10.23;2.67;;;6.60;77.50;;;;;;5094788;28;20380;-68
2021/04/04 02:51:05;;;;;;;13.90;2.90;;;6.60;78.10;;;;;;5094985;28;20377;-68
2021/04/04 02:53:39;;;;;;;15.63;3.23;;;6.60;76.90;;;;;;5094111;28;20443;-68
2021/04/04 02:56:06;;;;;;;11.57;2.97;;;6.60;76.90;;;;;;5095155;28;20616;-68
2021/04/04 02:58:34;;;;;;;9.70;2.70;;;6.60;76.90;;;;;;5093714;28;20304;-68
2021/04/04 03:01:00;;;;;;;12.70;2.40;;;6.60;76.70;;;;;;5095005;28;20363;-68
2021/04/04 03:03:31;;;;;;;8.30;2.93;;;6.60;76.70;;;;;;5094333;28;20294;-68
2021/04/04 03:06:01;;;;;;;8.90;2.70;;;6.60;76.50;;;;;;5094201;28;20290;-68
2021/04/04 03:08:27;;;;;;;15.07;4.00;;;6.60;76.40;;;;;;5094132;28;20671;-68
2021/04/04 03:10:54;;;;;;;9.17;2.90;;;6.60;77.10;;;;;;5094881;28;20290;-67
2021/04/04 03:13:22;;;;;;;11.20;3.20;;;6.50;76.30;;;;;;5093796;28;20320;-68
2021/04/04 03:15:51;;;;;;;12.47;3.73;;;6.50;76.30;;;;;;5094344;28;20294;-68
2021/04/04 03:18:20;;;;;;;11.53;3.17;;;6.50;76.20;;;;;;5094364;28;20373;-68
2021/04/04 03:20:47;;;;;;;12.17;2.73;;;6.50;76.30;;;;;;5093558;28;20294;-68
2021/04/04 03:23:16;;;;;;;10.03;2.93;;;6.50;76.10;;;;;;5094152;28;20817;-68
2021/04/04 03:25:45;;;;;;;7.28;3.35;;;6.50;76.30;;;;;;5094367;28;20290;-68
2021/04/04 03:28:13;;;;;;;10.47;3.37;;;6.60;76.40;;;;;;5093678;28;20063;-68
2021/04/04 03:30:43;;;;;;;14.60;3.60;;;6.60;76.20;;;;;;5094067;28;20754;-68
2021/04/04 03:33:14;;;;;;;10.97;3.00;;;6.60;76.20;;;;;;5094556;28;20347;-68
2021/04/04 03:35:40;;;;;;;12.25;4.72;;;6.60;76.20;;;;;;5093574;28;20392;-68
2021/04/04 03:38:08;;;;;;;12.43;3.23;;;6.60;76.30;;;;;;5094418;28;20427;-68
2021/04/04 03:40:35;;;;;;;12.20;3.00;;;6.50;76.30;;;;;;5092984;28;20302;-68
2021/04/04 03:43:09;;;;;;;12.17;3.83;;;6.50;76.50;;;;;;5094108;28;20363;-68
2021/04/04 03:45:36;;;;;;;10.77;3.67;;;6.50;76.60;;;;;;5093472;28;20822;-68
2021/04/04 03:48:04;;;;;;;12.03;3.60;;;6.50;76.60;;;;;;5093512;28;20294;-68
2021/04/04 03:50:30;;;;;;;15.13;3.57;;;6.60;76.80;;;;;;5093348;28;20302;-68
2021/04/04 03:52:58;;;;;;;11.47;3.50;;;6.60;76.60;;;;;;5094057;28;20299;-68
2021/04/04 03:55:25;;;;;;;11.93;3.63;;;6.70;76.70;;;;;;5092703;28;20306;-68
2021/04/04 03:57:53;;;;;;;9.20;3.73;;;6.60;76.50;;;;;;5092164;28;20298;-68
2021/04/04 04:00:21;;;;;;;10.53;3.57;;;6.60;76.40;;;;;;5093679;28;20302;-68
2021/04/04 04:02:51;;;;;;;16.23;4.67;;;6.60;76.50;;;;;;5092766;28;20391;-68
2021/04/04 04:05:21;;;;;;;11.43;4.20;;;6.60;76.60;;;;;;5093856;28;20315;-68
2021/04/04 04:07:48;;;;;;;13.80;4.57;;;6.60;76.60;;;;;;5093346;28;20681;-68
2021/04/04 04:10:16;;;;;;;11.57;4.67;;;6.60;76.70;;;;;;5092483;28;20286;-68
2021/04/04 04:12:44;;;;;;;12.37;4.73;;;6.60;76.70;;;;;;5093526;28;20294;-68
2021/04/04 04:15:18;;;;;;;9.67;4.00;;;6.50;76.70;;;;;;5093394;28;20669;-68
2021/04/04 04:17:46;;;;;;;11.23;4.03;;;6.50;76.80;;;;;;5092690;28;20298;-68
2021/04/04 04:20:13;;;;;;;12.13;4.83;;;6.60;77.00;;;;;;5093267;28;20317;-68
2021/04/04 04:22:40;;;;;;;10.83;4.73;;;6.60;76.90;;;;;;5092312;28;20371;-68
2021/04/04 04:25:06;;;;;;;18.70;5.63;;;6.60;76.80;;;;;;5093346;28;20283;-68
2021/04/04 04:27:34;;;;;;;13.63;5.27;;;6.60;76.80;;;;;;5092860;28;20304;-68
2021/04/04 04:30:02;;;;;;;13.63;4.97;;;6.60;76.80;;;;;;5092674;28;20302;-67
2021/04/04 04:32:30;;;;;;;17.80;4.70;;;6.60;76.90;;;;;;5092672;28;20298;-68
2021/04/04 04:34:56;;;;;;;14.87;4.57;;;6.70;76.90;;;;;;5093232;28;20309;-68
2021/04/04 04:37:23;;;;;;;12.90;4.50;;;6.70;76.80;;;;;;5092039;28;20298;-68
2021/04/04 04:39:49;;;;;;;13.27;5.07;;;6.60;76.80;;;;;;5092782;28;20813;-67
2021/04/04 04:42:17;;;;;;;16.97;5.10;;;6.70;76.90;;;;;;5092864;28;20306;-68
2021/04/04 04:44:45;;;;;;;11.97;5.17;;;6.70;76.90;;;;;;5092021;28;20298;-68
2021/04/04 04:47:12;;;;;;;18.40;5.70;;;6.70;76.80;;;;;;5092635;28;20300;-68
2021/04/04 04:49:38;;;;;;;11.83;4.53;;;6.70;76.80;;;;;;5092436;28;20880;-68
2021/04/04 04:52:04;;;;;;;14.03;6.13;;;6.80;76.80;;;;;;5092065;28;20298;-68
2021/04/04 04:54:31;;;;;;;13.77;6.23;;;6.80;76.70;;;;;;5092375;28;20044;-68
2021/04/04 04:56:58;;;;;;;15.47;6.57;;;6.80;76.30;;;;;;5092854;28;20317;-68
2021/04/04 04:59:26;;;;;;;14.73;6.80;;;6.80;76.00;;;;;;5091547;28;20743;-68
2021/04/04 05:01:52;;;;;;;18.20;6.80;;;6.80;75.20;;;;;;5092444;28;20321;-68
2021/04/04 05:04:19;;;;;;;15.73;6.27;;;6.70;74.70;;;;;;5092269;28;20290;-68
2021/04/04 05:06:46;;;;;;;16.83;6.87;;;6.70;75.00;;;;;;5091427;28;20332;-68
2021/04/04 05:09:13;;;;;;;18.73;6.80;;;6.70;74.90;;;;;;5091945;28;20321;-68
2021/04/04 05:11:44;;;;;;;16.90;6.40;;;6.70;74.50;;;;;;5092370;28;20302;-68
2021/04/04 05:14:14;;;;;;;14.15;6.72;;;6.70;74.40;;;;;;5091859;28;20366;-68
2021/04/04 05:16:41;;;;;;;14.17;6.10;;;6.60;74.40;;;;;;5092053;28;20048;-68
2021/04/04 05:19:08;;;;;;;15.37;6.77;;;6.60;74.70;;;;;;5091579;28;20363;-68
2021/04/04 05:21:36;;;;;;;14.23;6.70;;;6.70;74.80;;;;;;5091899;28;20316;-68
2021/04/04 05:24:04;;;;;;;15.03;6.90;;;6.80;74.80;;;;;;5092151;28;20297;-68
2021/04/04 05:26:32;;;;;;;17.47;7.17;;;6.80;74.60;;;;;;5090735;28;20786;-68
2021/04/04 05:29:03;;;;;;;18.77;7.33;;;6.80;74.50;;;;;;5092104;28;20351;-68
2021/04/04 05:31:30;;;;;;;18.43;6.57;;;6.80;75.50;;;;;;5091325;28;20375;-68
2021/04/04 05:33:56;;;;;;;18.20;6.53;;;6.80;74.50;;;;;;5091604;28;20322;-68
2021/04/04 05:36:23;;;;;;;16.47;7.30;;;6.80;74.30;;;;;;5073877;28;20334;-69
2021/04/04 05:38:49;;;;;;;17.27;6.63;;;6.90;74.30;;;;;;5091927;28;20048;-68
2021/04/04 05:41:17;;;;;;;15.30;7.23;;;6.90;74.10;;;;;;5090843;28;20693;-68
2021/04/04 05:43:56;;;;;;;17.57;7.57;;;6.80;74.10;;;;;;5091751;28;20040;-68
2021/04/04 05:46:32;;;;;;;14.83;7.43;;;6.80;74.20;;;;;;5091433;28;20416;-68
2021/04/04 05:49:15;;;;;;;19.00;7.57;;;6.80;74.20;;;;;;5091017;28;20306;-68
2021/04/04 05:52:21;;;;;;;18.10;7.80;;;6.80;74.30;;;;;;5091387;28;20294;-68
2021/04/04 05:55:02;;;;;;;17.80;7.53;;;6.80;74.20;;;;;;5041032;28;20310;-68
2021/04/04 05:57:41;;;;;;;18.07;8.57;;;6.90;74.40;;;;;;5091273;28;20298;-68
2021/04/04 06:00:09;;;;;;;21.20;8.23;;;6.90;74.10;;;;;;5091773;28;20302;-68
2021/04/04 06:02:59;;;;;;;16.90;8.07;;;6.90;74.10;;;;;;5090196;28;20458;-68
2021/04/04 06:05:59;;;;;;;16.43;7.93;;;6.90;74.20;;;;;;5091389;28;20294;-68
2021/04/04 06:08:43;;;;;;;15.60;7.53;;;6.80;74.10;;;;;;5090520;28;20803;-68
2021/04/04 06:11:15;;;;;;;21.50;7.53;;;6.80;74.10;;;;;;5091463;28;20309;-68
2021/04/04 06:14:05;;;;;;;16.80;8.57;;;6.90;74.20;;;;;;5091453;28;20306;-67
2021/04/04 06:17:09;;;;;;;18.17;8.50;;;6.90;74.20;;;;;;5090267;28;20476;-68
2021/04/04 06:20:03;;;;;;;15.73;7.60;;;6.90;74.20;;;;;;5090899;28;20302;-68
2021/04/04 06:22:50;;;;;;;14.53;7.87;;;6.90;74.20;;;;;;5083443;28;20318;-68
2021/04/04 06:25:34;;;;;;;20.37;8.10;;;6.90;75.30;;;;;;5095348;28;20305;-68
2021/04/04 06:28:15;;;;;;;20.37;7.27;;;6.90;74.40;;;;;;5095787;28;20294;-68
2021/04/04 06:30:50;;;;;;;17.88;6.50;;;6.90;74.50;;;;;;5094724;28;20309;-68
2021/04/04 06:33:25;;;;;;;16.53;7.37;;;6.90;74.50;;;;;;5095190;28;20052;-68
2021/04/04 06:36:01;;;;;;;16.53;7.63;;;6.90;74.50;;;;;;5095122;28;20701;-68
2021/04/04 06:38:45;;;;;;;14.87;7.33;;;7.00;74.40;;;;;;5094128;28;20334;-68
2021/04/04 06:41:20;;;;;;;16.10;8.30;;;7.00;74.40;;;;;;5095156;28;20306;-68
2021/04/04 06:44:28;;;;;;;18.17;8.97;;;7.00;74.60;;;;;;5094136;28;20783;-68
2021/04/04 06:47:27;;;;;;;17.13;7.83;;;7.00;74.60;;;;;;5094998;28;20724;-68
2021/04/04 06:50:04;;;;;;;17.67;8.20;;;7.00;74.70;;;;;;5094766;28;20305;-68
2021/04/04 06:52:38;;;;;;;16.30;8.47;;;7.00;74.80;;;;;;5093401;28;20302;-69
2021/04/04 06:55:38;;;;;;;22.27;9.20;;;7.00;74.70;;;;;;5097477;28;20298;-68
2021/04/04 06:58:28;;;;;;;19.13;8.37;;;7.10;74.70;;;;;;5104982;28;20294;-67
2021/04/04 07:01:17;;;;;;;19.47;8.70;;;7.00;74.80;;;;;;5104147;28;20294;-68
2021/04/04 07:04:01;;;;;;;23.50;8.77;;;7.00;74.80;;;;;;5102809;28;20301;-68
2021/04/04 07:06:26;;;;;;;16.77;8.80;;;7.10;74.90;;;;;;5104318;28;20347;-68
2021/04/04 07:09:10;;;;;;;17.00;8.13;;;7.10;75.00;;;;;;5103573;28;20294;-67
2021/04/04 07:11:53;;;;;;;16.33;8.27;;;7.10;75.00;;;;;;5102873;28;20451;-68
2021/04/04 07:14:48;;;;;;;21.03;8.97;;;7.10;74.90;;;;;;5104278;28;20305;-68
2021/04/04 07:17:52;;;;;;;17.93;8.80;;;7.20;75.00;;;;;;5103533;28;20337;-68
2021/04/04 07:21:08;;;;;;;21.27;9.47;;;7.10;75.20;;;;;;5102876;28;20347;-68
2021/04/04 07:24:09;;;;;;;23.07;8.70;;;7.10;75.10;;;;;;5104510;28;20821;-68
2021/04/04 07:26:50;;;;;;;19.05;9.57;;;7.10;75.20;;;;;;5103183;28;20302;-67
2021/04/04 07:29:35;;;;;;;21.40;9.30;;;7.10;75.20;;;;;;5104059;28;20127;-67
2021/04/04 07:32:11;;;;;;;25.60;9.00;;;7.20;75.10;;;;;;5086873;28;20359;-68
2021/04/04 07:34:53;;;;;;;20.30;10.03;;;7.20;75.20;;;;;;5112117;28;20366;-68
2021/04/04 07:37:38;;;;;;;22.03;8.83;;;7.20;75.10;;;;;;5114367;28;20294;-68
2021/04/04 07:40:09;;;;;;;18.23;8.87;;;7.20;75.20;;;;;;5113957;28;20301;-67
2021/04/04 07:43:04;;;;;;;24.40;9.50;;;7.30;75.20;;;;;;5113741;28;20693;-68
2021/04/04 07:45:35;;;;;;;21.60;8.97;;;7.20;75.10;;;;;;5096006;28;20784;-68
2021/04/04 07:48:22;;;;;;;16.93;8.07;;;7.30;75.20;;;;;;5113808;28;20376;-68
2021/04/04 07:51:03;;;;;;;19.87;7.97;;;7.30;75.20;;;;;;5114065;28;20399;-68
2021/04/04 07:53:56;;;;;;;19.10;8.80;;;7.30;75.20;;;;;;5113563;28;20298;-68
2021/04/04 07:56:55;;;;;;;19.97;8.33;;;7.30;75.20;;;;;;5113945;28;20300;-68
2021/04/04 07:59:41;;;;;;;19.43;8.13;;;7.40;75.20;;;;;;5113715;28;20301;-68
2021/04/04 08:02:10;;;;;;;18.60;8.17;;;7.40;75.10;;;;;;5113438;28;20324;-68
2021/04/04 08:04:53;;;;;;;17.87;8.43;;;7.40;75.00;;;;;;5113524;28;20301;-68
2021/04/04 08:07:29;;;;;;;20.13;8.83;;;7.40;75.00;;;;;;5113447;28;20329;-68
2021/04/04 08:10:11;;;;;;;19.17;9.30;;;7.50;75.10;;;;;;5113133;28;20300;-68
2021/04/04 08:13:05;;;;;;;16.07;8.57;;;7.50;75.00;;;;;;5113820;28;20656;-68
2021/04/04 08:15:45;;;;;;;17.47;9.00;;;7.50;74.90;;;;;;5112336;28;20293;-68
2021/04/04 08:18:11;;;;;;;18.33;7.97;;;7.50;74.80;;;;;;5113597;28;20290;-68
2021/04/04 08:20:45;;;;;;;20.03;8.80;;;7.60;74.70;;;;;;5113640;28;20422;-68
2021/04/04 08:23:32;;;;;;;18.37;7.83;;;7.60;74.70;;;;;;5112732;28;20051;-68
2021/04/04 08:26:05;;;;;;;16.60;7.93;;;7.60;74.60;;;;;;5113664;28;20303;-67
2021/04/04 08:28:42;;;;;;;71.60;10.87;;;7.60;74.60;;;;;;5112771;28;21067;-67
2021/04/04 08:31:30;;;;;;;16.17;7.90;;;7.70;74.30;;;;;;5113066;28;20832;-66
2021/04/04 08:34:11;;;;;;;28.20;24.87;;;7.80;74.50;;;;;;5113487;28;20293;-67
2021/04/04 08:36:41;;;;;;;19.10;8.87;;;7.70;74.20;;;;;;5112223;28;20308;-67
2021/04/04 08:39:09;;;;;;;22.33;7.87;;;7.80;74.30;;;;;;5113200;28;20285;-67
2021/04/04 08:41:36;;;;;;;20.73;7.33;;;7.80;74.20;;;;;;5112715;28;20337;-68
2021/04/04 08:44:18;;;;;;;17.87;7.03;;;7.90;74.50;;;;;;5111976;28;20325;-68
2021/04/04 08:47:04;;;;;;;19.77;7.10;;;7.90;74.20;;;;;;5112989;28;20297;-68
2021/04/04 08:49:30;;;;;;;16.87;8.70;;;8.00;74.20;;;;;;5112249;28;20154;-68
2021/04/04 08:52:05;;;;;;;17.03;8.73;;;8.00;74.20;;;;;;5112447;28;20337;-68
2021/04/04 08:54:34;;;;;;;17.47;8.07;;;8.10;73.90;;;;;;5112043;28;20519;-68
2021/04/04 08:57:00;;;;;;;18.70;8.00;;;8.20;73.90;;;;;;5112089;28;20323;-68
2021/04/04 08:59:31;;;;;;;19.80;8.40;;;8.30;73.50;;;;;;5112641;28;20305;-69
2021/04/04 09:02:02;;;;;;;14.88;7.57;;;8.30;73.30;;;;;;5112718;28;20309;-68
2021/04/04 09:04:28;;;;;;;18.33;7.90;;;8.30;73.20;;;;;;5111447;28;20135;-68
2021/04/04 09:07:02;;;;;;;21.10;8.23;;;8.30;73.10;;;;;;5112702;28;20841;-68
2021/04/04 09:09:36;;;;;;;18.07;7.80;;;8.30;72.80;;;;;;5112184;28;20300;-68
2021/04/04 09:12:01;;;;;;;19.57;8.47;;;8.30;72.90;;;;;;5112194;28;20350;-69
2021/04/04 09:14:36;;;;;;;22.10;8.87;;;8.30;72.80;;;;;;5111745;28;20297;-66
2021/04/04 09:17:13;;;;;;;20.10;9.10;;;8.20;72.70;;;;;;5112686;28;20039;-70
2021/04/04 09:19:40;;;;;;;18.03;8.17;;;8.30;73.00;;;;;;5111619;28;20300;-69
2021/04/04 09:22:13;;;;;;;19.87;8.67;;;8.20;72.90;;;;;;5112537;28;20313;-68
2021/04/04 09:24:46;;;;;;;21.63;8.57;;;8.30;73.10;;;;;;5112294;28;20303;-69
2021/04/04 09:27:15;;;;;;;17.80;7.70;;;8.30;73.00;;;;;;5111355;28;20298;-69
2021/04/04 09:29:43;;;;;;;13.70;7.13;;;8.40;72.80;;;;;;5112124;28;20293;-69
2021/04/04 09:32:34;;;;;;;19.10;7.60;;;8.40;72.70;;;;;;5111393;28;20388;-69
2021/04/04 09:35:02;;;;;;;15.37;6.27;;;8.50;72.60;;;;;;5112101;28;20623;-69
2021/04/04 09:37:29;;;;;;;15.27;6.63;;;8.50;72.50;;;;;;5111633;28;20301;-69
2021/04/04 09:39:56;;;;;;;17.43;5.57;;;8.50;72.20;;;;;;5111375;28;20754;-68
2021/04/04 09:42:22;;;;;;;13.10;5.07;;;8.50;72.30;;;;;;5112025;28;20317;-68
2021/04/04 09:44:48;;;;;;;17.37;6.47;;;8.50;72.30;;;;;;5112041;28;20290;-68
2021/04/04 09:47:14;;;;;;;12.73;6.40;;;8.50;72.30;;;;;;5111054;28;20306;-69
2021/04/04 09:49:42;;;;;;;16.20;4.97;;;8.50;72.20;;;;;;5111611;28;20051;-68
2021/04/04 09:52:24;;;;;;;15.57;4.80;;;8.60;72.20;;;;;;5112089;28;20333;-68
2021/04/04 09:54:59;;;;;;;;;;;8.60;72.00;;;;;;5111578;28;20293;-69
2021/04/04 09:57:25;;;;;;;9.80;3.10;;;8.60;71.30;;;;;;5104887;28;19954;-68
2021/04/04 09:59:51;;;;;;;11.73;3.00;;;8.50;72.00;;;;;;5100822;28;20785;-68
2021/04/04 10:02:36;;;;;;;12.67;4.13;;;8.60;72.20;;;;;;5099430;28;20306;-66
2021/04/04 10:05:03;;;;;;;10.13;3.57;;;8.60;72.40;;;;;;5102490;28;20096;-67
2021/04/04 10:07:32;;;;;;;15.23;4.37;;;8.60;72.40;;;;;;5099026;28;20293;-66
2021/04/04 10:09:59;;;;;;;15.30;4.20;;;8.60;72.60;;;;;;5100532;28;20356;-69
2021/04/04 10:12:25;;;;;;;15.60;4.30;;;8.60;72.40;;;;;;5100157;28;20317;-66
2021/04/04 10:15:05;;;;;;;11.03;3.63;;;8.50;72.40;;;;;;5099534;28;20761;-67
2021/04/04 10:17:30;;;;;;;10.43;3.53;;;8.60;72.50;;;;;;5100281;28;20150;-67
2021/04/04 10:19:58;;;;;;;11.10;4.03;;;8.70;72.30;;;;;;5100572;28;20384;-66
2021/04/04 10:22:24;;;;;;;9.43;3.57;;;8.80;71.80;;;;;;5100857;28;20066;-69
2021/04/04 10:24:51;;;;;;;15.63;3.10;;;8.70;71.60;;;;;;5098589;28;20786;-70
2021/04/04 10:27:29;;;;;;;13.63;3.87;;;8.70;71.60;;;;;;5100717;28;20044;-70
2021/04/04 10:30:12;;;;;;;12.30;3.30;;;8.70;71.60;;;;;;5099606;28;20303;-71
2021/04/04 10:32:42;;;;;;;12.67;3.30;;;8.80;71.60;;;;;;5098448;28;20313;-70
2021/04/04 10:35:11;;;;;;;9.70;3.00;;;8.90;70.80;;;;;;5097126;28;20375;-72
2021/04/04 10:37:38;;;;;;;12.40;2.77;;;9.00;70.20;;;;;;5095655;28;20297;-71
2021/04/04 10:40:10;;;;;;;9.90;2.67;;;9.00;69.90;;;;;;5099243;28;20304;-70
2021/04/04 10:42:38;;;;;;;18.40;3.17;;;9.10;69.20;;;;;;5094640;28;20313;-69
2021/04/04 10:45:15;;;;;;;8.93;2.47;;;9.10;69.20;;;;;;5096139;28;20115;-71
2021/04/04 10:47:42;;;;;;;11.87;2.77;;;9.20;69.00;;;;;;5095942;28;20306;-69
2021/04/04 10:50:11;;;;;;;10.17;2.90;;;9.30;69.00;;;;;;5098404;28;20304;-71
2021/04/04 10:52:39;;;;;;;10.57;2.90;;;9.30;68.60;;;;;;5097444;28;20326;-69
2021/04/04 10:55:05;;;;;;;14.17;3.20;;;9.30;68.40;;;;;;5093704;28;20351;-68
2021/04/04 10:57:33;;;;;;;11.33;3.33;;;9.40;68.30;;;;;;5096953;28;20738;-70
2021/04/04 11:00:00;;;;;;;13.23;3.03;;;9.40;68.00;;;;;;5098098;28;20286;-69
2021/04/04 11:02:25;;;;;;;15.30;2.87;;;9.50;68.20;;;;;;5096511;28;20310;-69
2021/04/04 11:04:51;;;;;;;10.40;3.07;;;9.60;68.10;;;;;;5097152;28;20305;-69
2021/04/04 11:07:20;;;;;;;13.07;3.63;;;9.60;67.80;;;;;;5098957;28;20493;-69
2021/04/04 11:09:47;;;;;;;12.73;3.33;;;9.70;67.40;;;;;;5099954;28;20303;-68
2021/04/04 11:12:14;;;;;;;11.80;3.20;;;9.70;67.50;;;;;;5100190;28;20293;-70
2021/04/04 11:14:43;;;;;;;9.77;2.93;;;9.90;67.30;;;;;;5101585;28;20942;-69
2021/04/04 11:17:11;;;;;;;13.37;3.23;;;10.00;66.60;;;;;;5100720;28;20787;-70
2021/04/04 11:19:37;;;;;;;12.33;2.90;;;10.10;66.20;;;;;;5100241;28;20877;-70
2021/04/04 11:22:04;;;;;;;11.63;3.00;;;10.10;66.20;;;;;;5101671;28;20623;-70
2021/04/04 11:24:30;;;;;;;12.27;2.67;;;10.10;66.30;;;;;;5100038;28;20302;-68
2021/04/04 11:27:02;;;;;;;6.23;2.67;;;10.20;66.30;;;;;;5100045;28;20301;-68
2021/04/04 11:29:28;;;;;;;11.87;3.03;;;10.20;66.10;;;;;;5099422;28;20047;-69
2021/04/04 11:32:14;;;;;;;8.50;2.90;;;10.20;66.20;;;;;;5099276;28;20297;-67
2021/04/04 11:34:40;;;;;;;11.47;3.67;;;10.20;65.80;;;;;;5101394;28;20040;-70
2021/04/04 11:37:26;;;;;;;8.73;2.20;;;10.20;66.20;;;;;;5100318;28;20101;-67
2021/04/04 11:40:10;;;;;;;14.53;3.13;;;10.30;66.00;;;;;;5101072;28;20043;-68
2021/04/04 11:42:36;;;;;;;7.60;3.43;;;10.20;65.50;;;;;;5100911;28;20099;-68
2021/04/04 11:45:02;;;;;;;8.10;3.13;;;10.20;66.30;;;;;;5099346;28;20185;-69
2021/04/04 11:47:27;;;;;;;15.23;3.97;;;10.20;66.30;;;;;;5100518;28;20067;-69
2021/04/04 11:49:55;;;;;;;15.13;2.63;;;10.30;66.40;;;;;;5101287;28;20086;-69
2021/04/04 11:52:23;;;;;;;14.73;4.37;;;10.20;66.50;;;;;;5098767;28;20059;-70
2021/04/04 11:54:50;;;;;;;11.67;3.23;;;10.20;66.60;;;;;;5099695;28;20043;-71
2021/04/04 11:57:23;;;;;;;14.20;3.60;;;10.20;66.70;;;;;;5101464;28;20082;-70
2021/04/04 11:59:50;;;;;;;8.77;3.13;;;10.20;66.60;;;;;;5098509;28;20100;-71
2021/04/04 12:02:17;;;;;;;11.07;3.73;;;10.20;66.70;;;;;;5094087;28;20100;-70
2021/04/04 12:04:47;;;;;;;14.87;4.00;;;10.20;66.70;;;;;;5090516;28;20064;-72
2021/04/04 12:07:15;;;;;;;14.30;3.70;;;10.20;66.80;;;;;;5089683;28;20054;-71
2021/04/04 12:09:46;;;;;;;14.53;3.73;;;10.20;66.90;;;;;;5105665;28;20055;-71
2021/04/04 12:12:13;;;;;;;13.18;3.90;;;10.20;67.00;;;;;;5110190;28;20064;-67
2021/04/04 12:15:05;;;;;;;20.40;4.10;;;10.20;67.20;;;;;;5107880;28;20089;-69
2021/04/04 12:17:32;;;;;;;13.53;4.10;;;10.10;67.00;;;;;;5105167;28;20054;-71
2021/04/04 12:19:59;;;;;;;11.33;2.83;;;10.10;67.60;;;;;;5109243;28;20067;-70
2021/04/04 12:22:40;;;;;;;13.53;3.47;;;10.10;67.50;;;;;;5108886;28;20467;-71
2021/04/04 12:25:12;;;;;;;11.57;3.67;;;10.10;67.00;;;;;;5110214;28;20138;-73
2021/04/04 12:27:38;;;;;;;;;;;10.20;67.10;;;;;;5111040;28;20053;-74
2021/04/04 12:30:06;;;;;;;10.47;3.20;;;10.20;66.20;;;;;;5109437;28;20244;-72
2021/04/04 12:32:33;;;;;;;11.00;3.20;;;10.20;67.30;;;;;;5109650;28;20051;-72
2021/04/04 12:35:02;;;;;;;11.53;3.50;;;10.20;67.10;;;;;;5109366;28;20380;-73
2021/04/04 12:37:31;;;;;;;11.13;2.93;;;10.20;67.00;;;;;;5109952;28;20073;-71
2021/04/04 12:39:59;;;;;;;9.93;2.90;;;10.20;66.80;;;;;;5112184;28;20052;-70
2021/04/04 12:42:33;;;;;;;13.50;3.53;;;10.20;66.40;;;;;;5112245;28;20054;-70
2021/04/04 12:45:06;;;;;;;10.53;2.90;;;10.30;66.00;;;;;;5113049;28;20047;-69
2021/04/04 12:47:32;;;;;;;14.10;3.10;;;10.30;66.80;;;;;;5112445;28;20596;-70
2021/04/04 12:50:01;;;;;;;7.80;3.23;;;10.30;65.90;;;;;;5111338;28;20139;-70
2021/04/04 12:52:37;;;;;;;12.67;3.20;;;10.30;65.50;;;;;;5094889;28;20054;-70
2021/04/04 12:55:32;;;;;;;14.53;3.40;;;10.30;65.80;;;;;;5092366;28;20044;-70
2021/04/04 12:58:03;;;;;;;11.67;3.93;;;10.30;65.70;;;;;;5091863;28;20355;-69
2021/04/04 13:00:40;;;;;;;12.97;3.40;;;10.30;65.80;;;;;;5091556;28;20477;-70
2021/04/04 13:03:12;;;;;;;13.27;3.10;;;10.20;65.60;;;;;;5091559;28;20076;-71
2021/04/04 13:05:53;;;;;;;8.40;2.88;;;10.20;65.70;;;;;;5091946;28;20431;-71
2021/04/04 13:08:23;;;;;;;11.03;3.27;;;10.20;65.90;;;;;;5105743;28;20146;-70
2021/04/04 13:10:51;;;;;;;10.30;3.37;;;10.30;65.80;;;;;;5111550;28;20055;-71
2021/04/04 13:13:21;;;;;;;14.80;4.00;;;10.30;66.00;;;;;;5112434;28;20416;-70
2021/04/04 13:15:47;;;;;;;19.60;4.30;;;10.30;66.00;;;;;;5112342;28;20051;-70